sensor_id;sensor_type;location;lat;lon;timestamp;temperature;humidity
23301;DHT22;11819;51.394;12.340;2023-06-05T00:01:57;16.00;58.90
23301;DHT22;11819;51.394;12.340;2023-06-05T00:04:22;15.90;59.00
23301;DHT22;11819;51.394;12.340;2023-06-05T00:06:49;15.90;59.10
23301;DHT22;11819;51.394;12.340;2023-06-05T00:09:16;15.80;59.20
23301;DHT22;11819;51.394;12.340;2023-06-05T00:11:42;15.70;59.30
23301;DHT22;11819;51.394;12.340;2023-06-05T00:14:07;15.70;59.30
23301;DHT22;11819;51.394;12.340;2023-06-05T00:16:34;15.70;59.30
23301;DHT22;11819;51.394;12.340;2023-06-05T00:19:00;15.60;59.30
23301;DHT22;11819;51.394;12.340;2023-06-05T00:21:26;15.60;59.40
23301;DHT22;11819;51.394;12.340;2023-06-05T00:23:52;15.50;59.50
23301;DHT22;11819;51.394;12.340;2023-06-05T00:26:17;15.40;60.40
23301;DHT22;11819;51.394;12.340;2023-06-05T00:28:43;15.40;59.80
23301;DHT22;11819;51.394;12.340;2023-06-05T00:31:08;15.40;59.90
23301;DHT22;11819;51.394;12.340;2023-06-05T00:33:34;15.30;59.90
23301;DHT22;11819;51.394;12.340;2023-06-05T00:36:00;15.30;59.90
23301;DHT22;11819;51.394;12.340;2023-06-05T00:38:25;15.20;60.00
23301;DHT22;11819;51.394;12.340;2023-06-05T00:40:52;15.20;60.10
23301;DHT22;11819;51.394;12.340;2023-06-05T00:43:18;15.20;60.00
23301;DHT22;11819;51.394;12.340;2023-06-05T00:45:44;15.20;60.10
23301;DHT22;11819;51.394;12.340;2023-06-05T00:48:09;15.10;60.20
23301;DHT22;11819;51.394;12.340;2023-06-05T00:50:37;15.10;60.20
23301;DHT22;11819;51.394;12.340;2023-06-05T00:53:03;15.10;60.30
23301;DHT22;11819;51.394;12.340;2023-06-05T00:55:31;15.10;60.40
23301;DHT22;11819;51.394;12.340;2023-06-05T00:57:57;15.00;60.40
23301;DHT22;11819;51.394;12.340;2023-06-05T01:00:22;15.00;60.40
23301;DHT22;11819;51.394;12.340;2023-06-05T01:02:49;15.00;60.50
23301;DHT22;11819;51.394;12.340;2023-06-05T01:05:20;15.00;60.40
23301;DHT22;11819;51.394;12.340;2023-06-05T01:07:46;15.00;60.50
23301;DHT22;11819;51.394;12.340;2023-06-05T01:10:14;15.00;60.60
23301;DHT22;11819;51.394;12.340;2023-06-05T01:12:53;15.00;60.60
23301;DHT22;11819;51.394;12.340;2023-06-05T01:15:24;14.90;60.40
23301;DHT22;11819;51.394;12.340;2023-06-05T01:17:56;14.90;60.50
23301;DHT22;11819;51.394;12.340;2023-06-05T01:20:22;14.90;60.50
23301;DHT22;11819;51.394;12.340;2023-06-05T01:22:49;14.90;60.60
23301;DHT22;11819;51.394;12.340;2023-06-05T01:25:18;14.90;60.80
23301;DHT22;11819;51.394;12.340;2023-06-05T01:30:35;14.80;61.10
23301;DHT22;11819;51.394;12.340;2023-06-05T01:33:48;14.70;61.30
23301;DHT22;11819;51.394;12.340;2023-06-05T01:36:15;14.70;61.60
23301;DHT22;11819;51.394;12.340;2023-06-05T01:38:43;14.70;61.60
23301;DHT22;11819;51.394;12.340;2023-06-05T01:41:10;14.70;61.40
23301;DHT22;11819;51.394;12.340;2023-06-05T01:43:38;14.70;61.30
23301;DHT22;11819;51.394;12.340;2023-06-05T01:46:05;14.70;61.20
23301;DHT22;11819;51.394;12.340;2023-06-05T01:48:33;14.70;61.30
23301;DHT22;11819;51.394;12.340;2023-06-05T01:51:02;14.70;61.40
23301;DHT22;11819;51.394;12.340;2023-06-05T01:53:29;14.60;61.70
23301;DHT22;11819;51.394;12.340;2023-06-05T01:55:55;14.60;62.10
23301;DHT22;11819;51.394;12.340;2023-06-05T01:58:25;14.50;62.10
23301;DHT22;11819;51.394;12.340;2023-06-05T02:00:52;14.50;62.20
23301;DHT22;11819;51.394;12.340;2023-06-05T02:03:20;14.50;62.20
23301;DHT22;11819;51.394;12.340;2023-06-05T02:05:46;14.40;62.50
23301;DHT22;11819;51.394;12.340;2023-06-05T02:08:12;14.40;62.70
23301;DHT22;11819;51.394;12.340;2023-06-05T02:10:39;14.40;62.80
23301;DHT22;11819;51.394;12.340;2023-06-05T02:13:09;14.30;62.80
23301;DHT22;11819;51.394;12.340;2023-06-05T02:15:35;14.30;62.80
23301;DHT22;11819;51.394;12.340;2023-06-05T02:18:03;14.20;62.80
23301;DHT22;11819;51.394;12.340;2023-06-05T02:20:31;14.20;62.70
23301;DHT22;11819;51.394;12.340;2023-06-05T02:22:57;14.20;62.90
23301;DHT22;11819;51.394;12.340;2023-06-05T02:25:24;14.20;63.10
23301;DHT22;11819;51.394;12.340;2023-06-05T02:27:54;14.10;63.40
23301;DHT22;11819;51.394;12.340;2023-06-05T02:30:20;14.10;63.60
23301;DHT22;11819;51.394;12.340;2023-06-05T02:32:46;14.10;63.80
23301;DHT22;11819;51.394;12.340;2023-06-05T02:35:13;14.00;63.70
23301;DHT22;11819;51.394;12.340;2023-06-05T02:37:40;14.00;63.70
23301;DHT22;11819;51.394;12.340;2023-06-05T02:40:10;14.00;63.70
23301;DHT22;11819;51.394;12.340;2023-06-05T02:42:37;14.00;63.80
23301;DHT22;11819;51.394;12.340;2023-06-05T02:45:05;14.00;63.90
23301;DHT22;11819;51.394;12.340;2023-06-05T02:47:31;14.00;63.90
23301;DHT22;11819;51.394;12.340;2023-06-05T02:49:59;14.00;64.00
23301;DHT22;11819;51.394;12.340;2023-06-05T02:52:25;13.90;64.00
23301;DHT22;11819;51.394;12.340;2023-06-05T02:54:51;13.90;64.10
23301;DHT22;11819;51.394;12.340;2023-06-05T02:57:18;13.90;64.30
23301;DHT22;11819;51.394;12.340;2023-06-05T02:59:44;13.80;65.20
23301;DHT22;11819;51.394;12.340;2023-06-05T03:02:14;13.80;64.50
23301;DHT22;11819;51.394;12.340;2023-06-05T03:04:43;13.80;64.60
23301;DHT22;11819;51.394;12.340;2023-06-05T03:07:09;13.80;64.70
23301;DHT22;11819;51.394;12.340;2023-06-05T03:09:40;13.70;64.80
23301;DHT22;11819;51.394;12.340;2023-06-05T03:12:06;13.70;65.00
23301;DHT22;11819;51.394;12.340;2023-06-05T03:14:32;13.60;65.10
23301;DHT22;11819;51.394;12.340;2023-06-05T03:16:58;13.60;65.20
23301;DHT22;11819;51.394;12.340;2023-06-05T03:19:25;13.60;65.40
23301;DHT22;11819;51.394;12.340;2023-06-05T03:21:53;13.60;65.40
23301;DHT22;11819;51.394;12.340;2023-06-05T03:24:19;13.60;65.20
23301;DHT22;11819;51.394;12.340;2023-06-05T03:26:51;13.70;65.30
23301;DHT22;11819;51.394;12.340;2023-06-05T03:29:17;13.70;65.30
23301;DHT22;11819;51.394;12.340;2023-06-05T03:31:43;13.70;65.00
23301;DHT22;11819;51.394;12.340;2023-06-05T03:34:10;13.70;65.00
23301;DHT22;11819;51.394;12.340;2023-06-05T03:36:36;13.70;65.20
23301;DHT22;11819;51.394;12.340;2023-06-05T03:39:06;13.70;65.10
23301;DHT22;11819;51.394;12.340;2023-06-05T03:41:33;13.70;65.20
23301;DHT22;11819;51.394;12.340;2023-06-05T03:44:00;13.80;65.40
23301;DHT22;11819;51.394;12.340;2023-06-05T03:46:26;13.80;65.50
23301;DHT22;11819;51.394;12.340;2023-06-05T03:48:55;13.80;65.40
23301;DHT22;11819;51.394;12.340;2023-06-05T03:51:27;13.80;65.30
23301;DHT22;11819;51.394;12.340;2023-06-05T03:53:57;13.80;65.30
23301;DHT22;11819;51.394;12.340;2023-06-05T03:56:27;13.80;65.50
23301;DHT22;11819;51.394;12.340;2023-06-05T03:59:09;13.80;65.60
23301;DHT22;11819;51.394;12.340;2023-06-05T04:01:42;13.80;65.60
23301;DHT22;11819;51.394;12.340;2023-06-05T04:04:08;13.80;65.60
23301;DHT22;11819;51.394;12.340;2023-06-05T04:06:34;13.80;65.60
23301;DHT22;11819;51.394;12.340;2023-06-05T04:09:00;13.90;65.80
23301;DHT22;11819;51.394;12.340;2023-06-05T04:11:26;13.80;65.80
23301;DHT22;11819;51.394;12.340;2023-06-05T04:13:55;13.90;65.80
23301;DHT22;11819;51.394;12.340;2023-06-05T04:16:21;13.90;65.80
23301;DHT22;11819;51.394;12.340;2023-06-05T04:18:47;13.90;65.90
23301;DHT22;11819;51.394;12.340;2023-06-05T04:21:13;13.90;65.90
23301;DHT22;11819;51.394;12.340;2023-06-05T04:23:39;14.00;65.90
23301;DHT22;11819;51.394;12.340;2023-06-05T04:26:04;14.00;66.00
23301;DHT22;11819;51.394;12.340;2023-06-05T04:28:30;14.10;66.00
23301;DHT22;11819;51.394;12.340;2023-06-05T04:30:56;14.10;65.80
23301;DHT22;11819;51.394;12.340;2023-06-05T04:33:23;14.10;65.70
23301;DHT22;11819;51.394;12.340;2023-06-05T04:35:49;14.20;65.70
23301;DHT22;11819;51.394;12.340;2023-06-05T04:38:15;14.30;65.70
23301;DHT22;11819;51.394;12.340;2023-06-05T04:40:47;14.40;65.80
23301;DHT22;11819;51.394;12.340;2023-06-05T04:43:14;14.40;65.80
23301;DHT22;11819;51.394;12.340;2023-06-05T04:45:40;14.40;65.80
23301;DHT22;11819;51.394;12.340;2023-06-05T04:48:08;14.50;66.00
23301;DHT22;11819;51.394;12.340;2023-06-05T04:50:33;14.50;66.10
23301;DHT22;11819;51.394;12.340;2023-06-05T04:53:05;14.50;66.20
23301;DHT22;11819;51.394;12.340;2023-06-05T04:55:32;14.60;66.50
23301;DHT22;11819;51.394;12.340;2023-06-05T04:57:57;14.60;66.70
23301;DHT22;11819;51.394;12.340;2023-06-05T05:00:27;14.60;66.70
23301;DHT22;11819;51.394;12.340;2023-06-05T05:02:53;14.70;66.50
23301;DHT22;11819;51.394;12.340;2023-06-05T05:05:20;14.70;66.20
23301;DHT22;11819;51.394;12.340;2023-06-05T05:07:47;14.80;66.40
23301;DHT22;11819;51.394;12.340;2023-06-05T05:10:14;14.80;66.50
23301;DHT22;11819;51.394;12.340;2023-06-05T05:12:40;14.90;66.30
23301;DHT22;11819;51.394;12.340;2023-06-05T05:15:06;14.90;66.30
23301;DHT22;11819;51.394;12.340;2023-06-05T05:17:33;14.90;66.30
23301;DHT22;11819;51.394;12.340;2023-06-05T05:19:59;15.00;66.40
23301;DHT22;11819;51.394;12.340;2023-06-05T05:22:26;15.00;66.40
23301;DHT22;11819;51.394;12.340;2023-06-05T05:24:53;15.10;66.20
23301;DHT22;11819;51.394;12.340;2023-06-05T05:27:19;15.20;65.40
23301;DHT22;11819;51.394;12.340;2023-06-05T05:29:45;15.30;64.80
23301;DHT22;11819;51.394;12.340;2023-06-05T05:32:11;15.40;64.40
23301;DHT22;11819;51.394;12.340;2023-06-05T05:34:36;15.50;64.50
23301;DHT22;11819;51.394;12.340;2023-06-05T05:37:03;15.60;64.40
23301;DHT22;11819;51.394;12.340;2023-06-05T05:39:29;15.60;64.60
23301;DHT22;11819;51.394;12.340;2023-06-05T05:41:55;15.60;64.70
23301;DHT22;11819;51.394;12.340;2023-06-05T05:44:20;15.60;64.50
23301;DHT22;11819;51.394;12.340;2023-06-05T05:46:46;15.70;64.50
23301;DHT22;11819;51.394;12.340;2023-06-05T05:49:15;15.80;64.60
23301;DHT22;11819;51.394;12.340;2023-06-05T05:51:40;15.80;65.30
23301;DHT22;11819;51.394;12.340;2023-06-05T05:54:06;15.80;66.60
23301;DHT22;11819;51.394;12.340;2023-06-05T05:56:32;15.90;66.10
23301;DHT22;11819;51.394;12.340;2023-06-05T05:58:59;15.90;66.20
23301;DHT22;11819;51.394;12.340;2023-06-05T06:01:25;16.00;66.40
23301;DHT22;11819;51.394;12.340;2023-06-05T06:03:51;16.00;66.40
23301;DHT22;11819;51.394;12.340;2023-06-05T06:06:17;16.10;66.40
23301;DHT22;11819;51.394;12.340;2023-06-05T06:08:42;16.20;66.70
23301;DHT22;11819;51.394;12.340;2023-06-05T06:11:08;16.30;66.80
23301;DHT22;11819;51.394;12.340;2023-06-05T06:13:34;16.30;66.50
23301;DHT22;11819;51.394;12.340;2023-06-05T06:16:01;16.50;65.60
23301;DHT22;11819;51.394;12.340;2023-06-05T06:18:27;16.50;64.90
23301;DHT22;11819;51.394;12.340;2023-06-05T06:20:53;16.60;64.80
23301;DHT22;11819;51.394;12.340;2023-06-05T06:23:19;16.60;64.80
23301;DHT22;11819;51.394;12.340;2023-06-05T06:25:44;16.60;64.70
23301;DHT22;11819;51.394;12.340;2023-06-05T06:28:10;16.70;64.40
23301;DHT22;11819;51.394;12.340;2023-06-05T06:30:36;16.80;63.90
23301;DHT22;11819;51.394;12.340;2023-06-05T06:33:02;16.80;63.70
23301;DHT22;11819;51.394;12.340;2023-06-05T06:35:30;16.90;63.70
23301;DHT22;11819;51.394;12.340;2023-06-05T06:37:57;16.90;63.90
23301;DHT22;11819;51.394;12.340;2023-06-05T06:40:24;16.90;64.20
23301;DHT22;11819;51.394;12.340;2023-06-05T06:42:50;17.00;65.00
23301;DHT22;11819;51.394;12.340;2023-06-05T06:45:25;17.00;66.30
23301;DHT22;11819;51.394;12.340;2023-06-05T06:47:51;17.00;66.40
23301;DHT22;11819;51.394;12.340;2023-06-05T06:50:16;16.90;66.50
23301;DHT22;11819;51.394;12.340;2023-06-05T06:52:42;17.00;66.60
23301;DHT22;11819;51.394;12.340;2023-06-05T06:55:08;17.00;66.40
23301;DHT22;11819;51.394;12.340;2023-06-05T06:57:34;17.00;65.90
23301;DHT22;11819;51.394;12.340;2023-06-05T06:59:59;17.10;65.40
23301;DHT22;11819;51.394;12.340;2023-06-05T07:02:25;17.20;65.20
23301;DHT22;11819;51.394;12.340;2023-06-05T07:04:51;17.30;65.00
23301;DHT22;11819;51.394;12.340;2023-06-05T07:07:19;17.30;64.50
23301;DHT22;11819;51.394;12.340;2023-06-05T07:09:49;17.30;64.20
23301;DHT22;11819;51.394;12.340;2023-06-05T07:12:17;17.40;64.50
23301;DHT22;11819;51.394;12.340;2023-06-05T07:14:44;17.40;64.30
23301;DHT22;11819;51.394;12.340;2023-06-05T07:17:10;17.40;63.60
23301;DHT22;11819;51.394;12.340;2023-06-05T07:19:36;17.40;63.50
23301;DHT22;11819;51.394;12.340;2023-06-05T07:22:03;17.50;63.30
23301;DHT22;11819;51.394;12.340;2023-06-05T07:24:34;17.50;63.10
23301;DHT22;11819;51.394;12.340;2023-06-05T07:27:02;17.60;63.10
23301;DHT22;11819;51.394;12.340;2023-06-05T07:29:28;17.60;62.90
23301;DHT22;11819;51.394;12.340;2023-06-05T07:31:55;17.70;63.00
23301;DHT22;11819;51.394;12.340;2023-06-05T07:34:23;17.80;62.60
23301;DHT22;11819;51.394;12.340;2023-06-05T07:36:49;17.90;62.20
23301;DHT22;11819;51.394;12.340;2023-06-05T07:39:19;17.90;61.90
23301;DHT22;11819;51.394;12.340;2023-06-05T07:41:44;18.00;61.20
23301;DHT22;11819;51.394;12.340;2023-06-05T07:44:12;18.10;60.70
23301;DHT22;11819;51.394;12.340;2023-06-05T07:46:45;18.20;60.30
23301;DHT22;11819;51.394;12.340;2023-06-05T07:49:11;18.20;60.20
23301;DHT22;11819;51.394;12.340;2023-06-05T07:51:36;18.20;60.10
23301;DHT22;11819;51.394;12.340;2023-06-05T07:54:12;18.30;60.20
23301;DHT22;11819;51.394;12.340;2023-06-05T07:56:39;18.30;59.90
23301;DHT22;11819;51.394;12.340;2023-06-05T07:59:06;18.40;59.80
23301;DHT22;11819;51.394;12.340;2023-06-05T08:01:36;18.50;59.80
23301;DHT22;11819;51.394;12.340;2023-06-05T08:04:05;18.60;59.80
23301;DHT22;11819;51.394;12.340;2023-06-05T08:06:32;18.70;60.00
23301;DHT22;11819;51.394;12.340;2023-06-05T08:09:00;18.80;59.80
23301;DHT22;11819;51.394;12.340;2023-06-05T08:11:27;18.80;59.70
23301;DHT22;11819;51.394;12.340;2023-06-05T08:13:54;18.90;59.80
23301;DHT22;11819;51.394;12.340;2023-06-05T08:16:20;19.00;59.80
23301;DHT22;11819;51.394;12.340;2023-06-05T08:18:46;19.00;59.60
23301;DHT22;11819;51.394;12.340;2023-06-05T08:21:12;19.10;59.30
23301;DHT22;11819;51.394;12.340;2023-06-05T08:23:39;19.20;58.90
23301;DHT22;11819;51.394;12.340;2023-06-05T08:26:05;19.30;58.60
23301;DHT22;11819;51.394;12.340;2023-06-05T08:28:40;19.40;58.30
23301;DHT22;11819;51.394;12.340;2023-06-05T08:31:06;19.40;58.00
23301;DHT22;11819;51.394;12.340;2023-06-05T08:33:36;19.60;57.80
23301;DHT22;11819;51.394;12.340;2023-06-05T08:36:03;19.70;57.30
23301;DHT22;11819;51.394;12.340;2023-06-05T08:38:29;19.90;56.50
23301;DHT22;11819;51.394;12.340;2023-06-05T08:41:01;20.10;55.70
23301;DHT22;11819;51.394;12.340;2023-06-05T08:43:27;20.30;55.30
23301;DHT22;11819;51.394;12.340;2023-06-05T08:45:55;20.50;54.60
23301;DHT22;11819;51.394;12.340;2023-06-05T08:48:22;20.70;54.00
23301;DHT22;11819;51.394;12.340;2023-06-05T08:50:50;20.90;53.70
23301;DHT22;11819;51.394;12.340;2023-06-05T08:53:20;21.10;52.90
23301;DHT22;11819;51.394;12.340;2023-06-05T08:55:47;21.20;52.10
23301;DHT22;11819;51.394;12.340;2023-06-05T08:58:14;21.30;51.90
23301;DHT22;11819;51.394;12.340;2023-06-05T09:00:40;21.40;51.50
23301;DHT22;11819;51.394;12.340;2023-06-05T09:03:06;21.40;50.60
23301;DHT22;11819;51.394;12.340;2023-06-05T09:05:32;21.50;49.90
23301;DHT22;11819;51.394;12.340;2023-06-05T09:08:01;21.50;49.50
23301;DHT22;11819;51.394;12.340;2023-06-05T09:10:28;21.60;49.50
23301;DHT22;11819;51.394;12.340;2023-06-05T09:12:59;21.60;49.30
23301;DHT22;11819;51.394;12.340;2023-06-05T09:15:32;21.70;49.10
23301;DHT22;11819;51.394;12.340;2023-06-05T09:18:06;21.70;48.60
23301;DHT22;11819;51.394;12.340;2023-06-05T09:20:35;21.80;48.10
23301;DHT22;11819;51.394;12.340;2023-06-05T09:23:02;21.90;47.70
23301;DHT22;11819;51.394;12.340;2023-06-05T09:25:47;21.90;47.80
23301;DHT22;11819;51.394;12.340;2023-06-05T09:28:16;21.90;47.80
23301;DHT22;11819;51.394;12.340;2023-06-05T09:30:57;21.90;47.80
23301;DHT22;11819;51.394;12.340;2023-06-05T09:33:28;22.00;47.40
23301;DHT22;11819;51.394;12.340;2023-06-05T09:36:11;22.00;47.10
23301;DHT22;11819;51.394;12.340;2023-06-05T09:38:41;22.00;47.40
23301;DHT22;11819;51.394;12.340;2023-06-05T09:41:09;22.10;47.30
23301;DHT22;11819;51.394;12.340;2023-06-05T09:43:35;22.10;47.50
23301;DHT22;11819;51.394;12.340;2023-06-05T09:46:13;22.10;47.50
23301;DHT22;11819;51.394;12.340;2023-06-05T09:48:39;22.20;47.70
23301;DHT22;11819;51.394;12.340;2023-06-05T09:51:16;22.20;47.60
23301;DHT22;11819;51.394;12.340;2023-06-05T09:53:48;22.30;47.80
23301;DHT22;11819;51.394;12.340;2023-06-05T09:56:16;22.30;47.80
23301;DHT22;11819;51.394;12.340;2023-06-05T09:58:48;22.30;47.80
23301;DHT22;11819;51.394;12.340;2023-06-05T10:01:18;22.40;47.80
23301;DHT22;11819;51.394;12.340;2023-06-05T10:04:08;22.50;47.60
23301;DHT22;11819;51.394;12.340;2023-06-05T10:06:34;22.60;47.40
23301;DHT22;11819;51.394;12.340;2023-06-05T10:09:02;22.80;47.40
23301;DHT22;11819;51.394;12.340;2023-06-05T10:11:29;23.00;46.80
23301;DHT22;11819;51.394;12.340;2023-06-05T10:13:56;23.10;46.00
23301;DHT22;11819;51.394;12.340;2023-06-05T10:16:26;23.20;45.70
23301;DHT22;11819;51.394;12.340;2023-06-05T10:18:56;23.40;45.50
23301;DHT22;11819;51.394;12.340;2023-06-05T10:21:23;23.40;45.30
23301;DHT22;11819;51.394;12.340;2023-06-05T10:23:52;23.40;45.40
23301;DHT22;11819;51.394;12.340;2023-06-05T10:27:03;23.40;44.70
23301;DHT22;11819;51.394;12.340;2023-06-05T10:29:52;23.30;44.90
23301;DHT22;11819;51.394;12.340;2023-06-05T10:32:36;23.30;45.20
23301;DHT22;11819;51.394;12.340;2023-06-05T10:35:24;23.20;45.20
23301;DHT22;11819;51.394;12.340;2023-06-05T10:38:22;23.30;45.30
23301;DHT22;11819;51.394;12.340;2023-06-05T10:40:56;23.30;44.80
23301;DHT22;11819;51.394;12.340;2023-06-05T10:43:33;23.50;44.00
23301;DHT22;11819;51.394;12.340;2023-06-05T10:46:45;23.70;44.10
23301;DHT22;11819;51.394;12.340;2023-06-05T10:51:41;24.30;42.90
23301;DHT22;11819;51.394;12.340;2023-06-05T10:54:13;24.50;42.90
23301;DHT22;11819;51.394;12.340;2023-06-05T10:59:17;24.80;42.00
23301;DHT22;11819;51.394;12.340;2023-06-05T11:07:28;24.90;41.80
23301;DHT22;11819;51.394;12.340;2023-06-05T11:10:18;24.80;41.90
23301;DHT22;11819;51.394;12.340;2023-06-05T11:15:13;24.60;42.90
23301;DHT22;11819;51.394;12.340;2023-06-05T11:17:41;24.70;43.00
23301;DHT22;11819;51.394;12.340;2023-06-05T11:27:54;25.70;41.30
23301;DHT22;11819;51.394;12.340;2023-06-05T11:30:22;25.90;41.50
23301;DHT22;11819;51.394;12.340;2023-06-05T11:32:50;26.00;41.60
23301;DHT22;11819;51.394;12.340;2023-06-05T11:35:25;26.20;41.10
23301;DHT22;11819;51.394;12.340;2023-06-05T11:38:24;26.20;40.90
23301;DHT22;11819;51.394;12.340;2023-06-05T11:40:50;26.30;40.60
23301;DHT22;11819;51.394;12.340;2023-06-05T11:43:16;26.30;40.20
23301;DHT22;11819;51.394;12.340;2023-06-05T11:45:48;26.40;40.30
23301;DHT22;11819;51.394;12.340;2023-06-05T11:48:15;26.40;40.10
23301;DHT22;11819;51.394;12.340;2023-06-05T11:51:04;26.40;40.20
23301;DHT22;11819;51.394;12.340;2023-06-05T11:53:32;26.30;40.20
23301;DHT22;11819;51.394;12.340;2023-06-05T11:55:58;26.40;40.50
23301;DHT22;11819;51.394;12.340;2023-06-05T11:58:32;26.60;40.60
23301;DHT22;11819;51.394;12.340;2023-06-05T12:03:30;27.00;40.70
23301;DHT22;11819;51.394;12.340;2023-06-05T12:05:56;27.30;40.40
23301;DHT22;11819;51.394;12.340;2023-06-05T12:08:24;27.50;39.70
23301;DHT22;11819;51.394;12.340;2023-06-05T12:11:01;27.60;39.60
23301;DHT22;11819;51.394;12.340;2023-06-05T12:13:49;27.70;39.30
23301;DHT22;11819;51.394;12.340;2023-06-05T12:16:16;27.90;39.30
23301;DHT22;11819;51.394;12.340;2023-06-05T12:18:43;28.10;38.90
23301;DHT22;11819;51.394;12.340;2023-06-05T12:21:23;28.30;38.40
23301;DHT22;11819;51.394;12.340;2023-06-05T12:23:49;28.50;37.80
23301;DHT22;11819;51.394;12.340;2023-06-05T12:26:16;28.60;37.20
23301;DHT22;11819;51.394;12.340;2023-06-05T12:28:43;28.80;37.20
23301;DHT22;11819;51.394;12.340;2023-06-05T12:31:55;29.00;37.10
23301;DHT22;11819;51.394;12.340;2023-06-05T12:33:55;29.20;36.70
23301;DHT22;11819;51.394;12.340;2023-06-05T12:36:21;29.50;36.80
23301;DHT22;11819;51.394;12.340;2023-06-05T12:38:47;29.80;36.40
23301;DHT22;11819;51.394;12.340;2023-06-05T12:41:12;30.10;35.90
23301;DHT22;11819;51.394;12.340;2023-06-05T12:43:38;30.10;35.00
23301;DHT22;11819;51.394;12.340;2023-06-05T12:46:05;30.00;35.10
23301;DHT22;11819;51.394;12.340;2023-06-05T12:48:31;29.80;36.20
23301;DHT22;11819;51.394;12.340;2023-06-05T12:50:57;29.60;35.70
23301;DHT22;11819;51.394;12.340;2023-06-05T12:53:22;29.40;36.00
23301;DHT22;11819;51.394;12.340;2023-06-05T12:55:48;29.30;35.80
23301;DHT22;11819;51.394;12.340;2023-06-05T12:58:14;29.10;35.60
23301;DHT22;11819;51.394;12.340;2023-06-05T13:00:40;28.70;35.90
23301;DHT22;11819;51.394;12.340;2023-06-05T13:03:05;28.30;36.60
23301;DHT22;11819;51.394;12.340;2023-06-05T13:05:31;27.90;36.80
23301;DHT22;11819;51.394;12.340;2023-06-05T13:07:58;27.50;37.00
23301;DHT22;11819;51.394;12.340;2023-06-05T13:10:24;27.20;38.00
23301;DHT22;11819;51.394;12.340;2023-06-05T13:12:50;27.00;38.70
23301;DHT22;11819;51.394;12.340;2023-06-05T13:15:16;26.90;38.90
23301;DHT22;11819;51.394;12.340;2023-06-05T13:17:41;26.90;38.90
23301;DHT22;11819;51.394;12.340;2023-06-05T13:20:08;27.10;38.90
23301;DHT22;11819;51.394;12.340;2023-06-05T13:22:36;27.20;38.70
23301;DHT22;11819;51.394;12.340;2023-06-05T13:25:03;27.40;38.90
23301;DHT22;11819;51.394;12.340;2023-06-05T13:27:29;27.50;38.70
23301;DHT22;11819;51.394;12.340;2023-06-05T13:29:54;27.50;39.20
23301;DHT22;11819;51.394;12.340;2023-06-05T13:32:20;27.40;39.50
23301;DHT22;11819;51.394;12.340;2023-06-05T13:34:46;27.50;39.80
23301;DHT22;11819;51.394;12.340;2023-06-05T13:37:12;27.50;40.10
23301;DHT22;11819;51.394;12.340;2023-06-05T13:39:37;27.40;40.10
23301;DHT22;11819;51.394;12.340;2023-06-05T13:42:03;27.40;40.20
23301;DHT22;11819;51.394;12.340;2023-06-05T13:44:32;27.30;40.30
23301;DHT22;11819;51.394;12.340;2023-06-05T13:46:57;27.20;40.70
23301;DHT22;11819;51.394;12.340;2023-06-05T13:49:23;27.20;41.10
23301;DHT22;11819;51.394;12.340;2023-06-05T13:51:48;27.10;40.90
23301;DHT22;11819;51.394;12.340;2023-06-05T13:54:14;27.10;40.80
23301;DHT22;11819;51.394;12.340;2023-06-05T13:56:40;27.40;40.70
23301;DHT22;11819;51.394;12.340;2023-06-05T13:59:05;27.80;39.70
23301;DHT22;11819;51.394;12.340;2023-06-05T14:01:31;28.10;38.50
23301;DHT22;11819;51.394;12.340;2023-06-05T14:03:56;28.30;38.40
23301;DHT22;11819;51.394;12.340;2023-06-05T14:06:22;28.60;38.60
23301;DHT22;11819;51.394;12.340;2023-06-05T14:08:48;29.00;38.40
23301;DHT22;11819;51.394;12.340;2023-06-05T14:11:13;29.60;37.10
23301;DHT22;11819;51.394;12.340;2023-06-05T14:13:39;30.00;35.60
23301;DHT22;11819;51.394;12.340;2023-06-05T14:16:05;30.40;35.30
23301;DHT22;11819;51.394;12.340;2023-06-05T14:18:32;30.90;34.70
23301;DHT22;11819;51.394;12.340;2023-06-05T14:20:57;31.30;33.80
23301;DHT22;11819;51.394;12.340;2023-06-05T14:23:23;31.40;33.10
23301;DHT22;11819;51.394;12.340;2023-06-05T14:25:50;31.50;32.20
23301;DHT22;11819;51.394;12.340;2023-06-05T14:28:16;31.70;32.70
23301;DHT22;11819;51.394;12.340;2023-06-05T14:30:41;31.80;32.10
23301;DHT22;11819;51.394;12.340;2023-06-05T14:33:07;31.80;31.80
23301;DHT22;11819;51.394;12.340;2023-06-05T14:35:33;31.80;32.70
23301;DHT22;11819;51.394;12.340;2023-06-05T14:37:58;32.00;32.50
23301;DHT22;11819;51.394;12.340;2023-06-05T14:40:24;32.10;32.20
23301;DHT22;11819;51.394;12.340;2023-06-05T14:42:50;32.10;31.90
23301;DHT22;11819;51.394;12.340;2023-06-05T14:45:16;31.80;32.70
23301;DHT22;11819;51.394;12.340;2023-06-05T14:47:41;31.30;33.30
23301;DHT22;11819;51.394;12.340;2023-06-05T14:50:08;30.70;33.30
23301;DHT22;11819;51.394;12.340;2023-06-05T14:52:34;30.40;34.00
23301;DHT22;11819;51.394;12.340;2023-06-05T14:55:01;30.60;34.50
23301;DHT22;11819;51.394;12.340;2023-06-05T14:57:27;30.90;34.30
23301;DHT22;11819;51.394;12.340;2023-06-05T14:59:53;30.90;33.40
23301;DHT22;11819;51.394;12.340;2023-06-05T15:02:18;30.50;33.60
23301;DHT22;11819;51.394;12.340;2023-06-05T15:04:48;30.40;34.00
23301;DHT22;11819;51.394;12.340;2023-06-05T15:07:21;30.50;34.50
23301;DHT22;11819;51.394;12.340;2023-06-05T15:09:47;30.70;34.20
23301;DHT22;11819;51.394;12.340;2023-06-05T15:12:12;30.90;34.10
23301;DHT22;11819;51.394;12.340;2023-06-05T15:14:38;30.80;33.70
23301;DHT22;11819;51.394;12.340;2023-06-05T15:17:04;30.60;34.00
23301;DHT22;11819;51.394;12.340;2023-06-05T15:19:30;30.40;34.30
23301;DHT22;11819;51.394;12.340;2023-06-05T15:21:55;30.40;34.60
23301;DHT22;11819;51.394;12.340;2023-06-05T15:24:21;30.50;34.80
23301;DHT22;11819;51.394;12.340;2023-06-05T15:26:46;30.80;34.60
23301;DHT22;11819;51.394;12.340;2023-06-05T15:29:12;31.10;33.90
23301;DHT22;11819;51.394;12.340;2023-06-05T15:31:37;31.30;33.40
23301;DHT22;11819;51.394;12.340;2023-06-05T15:34:03;31.50;33.40
23301;DHT22;11819;51.394;12.340;2023-06-05T15:36:28;31.80;33.30
23301;DHT22;11819;51.394;12.340;2023-06-05T15:38:54;32.00;33.40
23301;DHT22;11819;51.394;12.340;2023-06-05T15:41:21;32.00;33.30
23301;DHT22;11819;51.394;12.340;2023-06-05T15:43:48;32.00;33.00
23301;DHT22;11819;51.394;12.340;2023-06-05T15:46:13;31.80;32.60
23301;DHT22;11819;51.394;12.340;2023-06-05T15:48:39;31.40;32.80